createdAt,value
2023-05-03T00:01:09.421Z,9.42
2023-05-03T00:03:41.051Z,9.21
2023-05-03T00:06:14.221Z,9.04
2023-05-03T00:08:45.888Z,8.17
2023-05-03T00:11:17.503Z,8.39
2023-05-03T00:13:49.143Z,8.49
2023-05-03T00:16:20.771Z,8.47
2023-05-03T00:18:52.472Z,7.91
2023-05-03T00:21:24.127Z,8.20
2023-05-03T00:23:55.709Z,8.16
2023-05-03T00:26:28.221Z,8.11
2023-05-03T00:28:59.854Z,8.00
2023-05-03T00:31:31.480Z,7.96
2023-05-03T00:34:03.224Z,8.07
2023-05-03T00:36:37.090Z,7.93
2023-05-03T00:39:08.966Z,7.58
2023-05-03T00:41:40.606Z,7.67
2023-05-03T00:44:12.453Z,7.74
2023-05-03T00:46:44.371Z,7.49
2023-05-03T00:49:16.548Z,7.57
2023-05-03T00:51:48.578Z,7.03
2023-05-03T00:54:21.226Z,7.59
2023-05-03T00:56:53.432Z,7.65
2023-05-03T00:59:25.155Z,7.88
2023-05-03T01:01:56.802Z,7.93
2023-05-03T01:04:29.925Z,7.80
2023-05-03T01:07:32.175Z,7.81
2023-05-03T01:10:28.380Z,7.99
2023-05-03T01:13:06.037Z,8.20
2023-05-03T01:15:59.363Z,7.74
2023-05-03T01:18:38.713Z,8.39
2023-05-03T01:21:13.166Z,8.05
2023-05-03T01:24:04.395Z,8.42
2023-05-03T01:26:36.146Z,8.55
2023-05-03T01:29:07.729Z,8.50
2023-05-03T01:31:47.530Z,8.81
2023-05-03T01:34:33.656Z,8.69
2023-05-03T01:37:10.773Z,8.94
2023-05-03T01:40:02.898Z,8.84
2023-05-03T01:42:37.551Z,8.66
2023-05-03T01:45:09.882Z,8.96
2023-05-03T01:47:41.599Z,9.11
2023-05-03T01:50:13.182Z,9.17
2023-05-03T01:52:45.152Z,8.78
2023-05-03T01:55:16.746Z,8.59
2023-05-03T01:57:50.006Z,8.71
2023-05-03T02:00:23.437Z,8.61
2023-05-03T02:02:55.091Z,8.71
2023-05-03T02:05:26.758Z,8.45
2023-05-03T02:07:59.003Z,8.55
2023-05-03T02:10:31.752Z,8.26
2023-05-03T02:13:03.433Z,9.28
2023-05-03T02:15:35.172Z,8.49
2023-05-03T02:18:07.375Z,8.44
2023-05-03T02:20:39.350Z,8.86
2023-05-03T02:23:11.038Z,8.88
2023-05-03T02:25:42.853Z,8.92
2023-05-03T02:28:14.459Z,8.70
2023-05-03T02:30:46.146Z,8.89
2023-05-03T02:33:17.820Z,9.37
2023-05-03T02:35:49.424Z,9.15
2023-05-03T02:38:21.046Z,8.82
2023-05-03T02:40:52.888Z,9.10
2023-05-03T02:43:24.500Z,9.37
2023-05-03T02:45:56.330Z,9.27
2023-05-03T02:48:29.617Z,9.30
2023-05-03T02:51:01.150Z,9.73
2023-05-03T02:53:32.953Z,9.75
2023-05-03T02:56:07.277Z,9.63
2023-05-03T02:58:38.874Z,10.16
2023-05-03T03:01:11.402Z,10.20
2023-05-03T03:03:43.181Z,10.01
2023-05-03T03:06:14.981Z,10.04
2023-05-03T03:08:47.405Z,10.66
2023-05-03T03:11:19.295Z,10.65
2023-05-03T03:13:52.533Z,10.98
2023-05-03T03:16:25.891Z,10.89
2023-05-03T03:18:57.485Z,11.87
2023-05-03T03:21:29.408Z,11.92
2023-05-03T03:24:01.013Z,12.73
2023-05-03T03:26:32.666Z,12.32
2023-05-03T03:29:05.043Z,13.16
2023-05-03T03:31:38.199Z,13.17
2023-05-03T03:34:13.033Z,12.86
2023-05-03T03:36:44.987Z,13.46
2023-05-03T03:39:16.951Z,13.63
2023-05-03T03:41:49.042Z,13.73
2023-05-03T03:44:20.657Z,14.36
2023-05-03T03:46:52.518Z,14.01
2023-05-03T03:49:24.124Z,14.20
2023-05-03T03:51:55.751Z,14.52
2023-05-03T03:54:27.427Z,15.19
2023-05-03T03:56:59.007Z,15.35
2023-05-03T03:59:30.776Z,15.57
2023-05-03T04:02:04.018Z,14.81
2023-05-03T04:04:35.874Z,14.95
2023-05-03T04:07:09.290Z,15.13
2023-05-03T04:09:41.157Z,15.59
2023-05-03T04:12:12.980Z,15.58
2023-05-03T04:14:46.287Z,15.85
2023-05-03T04:17:17.880Z,15.51
2023-05-03T04:19:49.835Z,15.76
2023-05-03T04:22:21.512Z,15.12
2023-05-03T04:24:53.162Z,15.46
2023-05-03T04:27:24.857Z,15.14
2023-05-03T04:29:56.576Z,14.95
2023-05-03T04:32:28.474Z,15.42
2023-05-03T04:35:01.857Z,15.73
2023-05-03T04:37:33.586Z,15.68
2023-05-03T04:40:06.374Z,14.70
2023-05-03T04:42:39.247Z,14.97
2023-05-03T04:45:11.683Z,15.23
2023-05-03T04:47:43.356Z,14.49
2023-05-03T04:50:15.160Z,15.16
2023-05-03T04:52:49.039Z,15.75
2023-05-03T04:55:20.680Z,15.59
2023-05-03T04:57:53.005Z,15.52
2023-05-03T05:00:24.747Z,14.58
2023-05-03T05:03:02.605Z,15.26
2023-05-03T05:05:36.132Z,14.69
2023-05-03T05:08:07.784Z,14.87
2023-05-03T05:10:45.086Z,15.15
2023-05-03T05:13:21.563Z,14.56
2023-05-03T05:15:58.011Z,14.69
2023-05-03T05:18:33.622Z,14.76
2023-05-03T05:21:11.616Z,14.99
2023-05-03T05:23:44.050Z,14.30
2023-05-03T05:26:16.393Z,14.77
2023-05-03T05:28:48.602Z,14.26
2023-05-03T05:31:20.606Z,14.58
2023-05-03T05:33:52.967Z,14.98
2023-05-03T05:36:24.594Z,13.90
2023-05-03T05:38:56.647Z,13.48
2023-05-03T05:41:28.660Z,13.60
2023-05-03T05:44:00.746Z,13.02
2023-05-03T05:46:34.043Z,13.43
2023-05-03T05:49:06.260Z,12.78
2023-05-03T05:51:38.136Z,13.45
2023-05-03T05:54:09.826Z,12.72
2023-05-03T05:56:41.545Z,12.38
2023-05-03T05:59:13.516Z,12.51
2023-05-03T06:01:46.090Z,12.47
2023-05-03T06:04:20.573Z,11.92
2023-05-03T06:06:52.414Z,12.09
2023-05-03T06:09:25.206Z,11.65
2023-05-03T06:12:01.584Z,11.34
2023-05-03T06:14:35.837Z,10.86
2023-05-03T06:17:08.245Z,11.24
2023-05-03T06:19:40.332Z,10.68
2023-05-03T06:22:12.085Z,11.28
2023-05-03T06:24:44.370Z,11.41
2023-05-03T06:27:16.078Z,10.77
2023-05-03T06:29:48.401Z,10.93
2023-05-03T06:32:20.626Z,10.57
2023-05-03T06:34:52.531Z,10.66
2023-05-03T06:37:24.382Z,10.64
2023-05-03T06:39:56.181Z,10.41
2023-05-03T06:42:27.908Z,11.00
2023-05-03T06:45:11.785Z,11.63
2023-05-03T06:47:43.702Z,10.97
2023-05-03T06:50:16.063Z,10.70
2023-05-03T06:52:48.021Z,11.11
2023-05-03T06:55:19.791Z,10.76
2023-05-03T06:57:51.891Z,11.44
2023-05-03T07:00:24.116Z,10.63
2023-05-03T07:02:57.457Z,10.14
2023-05-03T07:05:29.402Z,9.98
2023-05-03T07:08:02.997Z,10.51
2023-05-03T07:10:34.949Z,9.68
2023-05-03T07:13:06.730Z,9.75
2023-05-03T07:15:38.526Z,9.58
2023-05-03T07:18:10.354Z,9.71
2023-05-03T07:20:42.283Z,9.74
2023-05-03T07:23:13.867Z,11.03
2023-05-03T07:25:45.994Z,10.35
2023-05-03T07:28:17.630Z,10.26
2023-05-03T07:30:49.682Z,10.37
2023-05-03T07:33:21.572Z,10.75
2023-05-03T07:35:53.421Z,10.91
2023-05-03T07:38:25.229Z,11.19
2023-05-03T07:40:56.920Z,11.59
2023-05-03T07:43:28.604Z,11.14
2023-05-03T07:46:00.267Z,10.91
2023-05-03T07:48:32.093Z,10.72
2023-05-03T07:51:05.327Z,10.77
2023-05-03T07:53:36.847Z,10.94
2023-05-03T07:56:08.484Z,10.86
2023-05-03T07:58:41.071Z,11.10
2023-05-03T08:01:13.445Z,11.32
2023-05-03T08:03:45.527Z,10.70
2023-05-03T08:06:18.384Z,11.06
2023-05-03T08:08:49.966Z,10.75
2023-05-03T08:11:21.770Z,10.83
2023-05-03T08:13:53.647Z,11.53
2023-05-03T08:16:25.311Z,11.83
2023-05-03T08:18:57.113Z,11.06
2023-05-03T08:21:28.720Z,10.69
2023-05-03T08:24:00.472Z,11.30
2023-05-03T08:26:33.355Z,10.70
2023-05-03T08:29:05.024Z,11.16
2023-05-03T08:31:36.833Z,10.86
2023-05-03T08:34:09.306Z,11.51
2023-05-03T08:36:40.998Z,11.15
2023-05-03T08:39:16.866Z,10.77
2023-05-03T08:41:48.581Z,11.08
2023-05-03T08:44:21.981Z,10.97
2023-05-03T08:46:53.624Z,10.79
2023-05-03T08:49:26.108Z,10.92
2023-05-03T08:51:59.776Z,10.97
2023-05-03T08:54:31.584Z,10.06
2023-05-03T08:57:03.289Z,10.86
2023-05-03T08:59:46.570Z,11.10
2023-05-03T09:02:18.232Z,10.79
2023-05-03T09:04:50.144Z,10.53
2023-05-03T09:07:21.967Z,10.45
2023-05-03T09:09:53.718Z,11.60
2023-05-03T09:12:38.744Z,11.46
2023-05-03T09:15:21.188Z,10.69
2023-05-03T09:18:09.128Z,10.07
2023-05-03T09:20:43.778Z,9.99
2023-05-03T09:23:15.486Z,9.82
2023-05-03T09:25:49.795Z,10.13
2023-05-03T09:28:21.657Z,10.41
2023-05-03T09:31:05.479Z,9.81
2023-05-03T09:33:37.146Z,10.00
2023-05-03T09:36:08.959Z,9.89
2023-05-03T09:38:40.533Z,9.73
2023-05-03T09:41:12.372Z,9.68
2023-05-03T09:43:52.491Z,9.27
2023-05-03T09:46:24.308Z,9.35
2023-05-03T09:48:56.912Z,8.92
2023-05-03T09:51:29.211Z,9.06
2023-05-03T09:54:02.314Z,9.37
2023-05-03T09:56:34.092Z,8.95
2023-05-03T09:59:05.773Z,8.81
2023-05-03T10:01:38.165Z,9.07
2023-05-03T10:04:11.840Z,9.27
2023-05-03T10:06:50.719Z,8.93
2023-05-03T10:09:27.256Z,8.90
2023-05-03T10:12:04.824Z,8.73
2023-05-03T10:14:36.877Z,8.26
2023-05-03T10:17:18.744Z,8.76
2023-05-03T10:20:02.534Z,8.37
2023-05-03T10:23:06.424Z,8.69
2023-05-03T10:25:40.305Z,8.72
2023-05-03T10:28:12.150Z,9.07
2023-05-03T10:30:43.805Z,8.69
2023-05-03T10:33:15.495Z,8.67
2023-05-03T10:35:54.349Z,8.20
2023-05-03T10:38:28.495Z,7.88
2023-05-03T10:41:00.330Z,8.52
2023-05-03T10:43:34.852Z,8.11
2023-05-03T10:46:09.521Z,8.08
2023-05-03T10:48:41.224Z,8.80
2023-05-03T10:51:31.791Z,9.32
2023-05-03T10:54:03.545Z,9.65
2023-05-03T10:56:47.885Z,8.53
2023-05-03T10:59:20.518Z,8.89
2023-05-03T11:01:53.422Z,8.56
2023-05-03T11:04:37.810Z,7.46
2023-05-03T11:07:09.628Z,7.59
2023-05-03T11:09:41.440Z,8.08
2023-05-03T11:12:13.138Z,6.96
2023-05-03T11:14:44.928Z,7.05
2023-05-03T11:17:17.061Z,7.28
2023-05-03T11:19:49.829Z,7.62
2023-05-03T11:22:22.040Z,7.27
2023-05-03T11:24:53.704Z,7.04
2023-05-03T11:27:25.356Z,7.49
2023-05-03T11:29:56.998Z,6.96
2023-05-03T11:32:28.824Z,7.06
2023-05-03T11:35:01.715Z,6.71
2023-05-03T11:37:34.430Z,6.96
2023-05-03T11:40:16.005Z,6.84
2023-05-03T11:42:57.375Z,6.28
2023-05-03T11:45:40.717Z,6.65
2023-05-03T11:48:13.786Z,6.49
2023-05-03T11:50:50.998Z,5.90
2023-05-03T11:53:26.470Z,6.10
2023-05-03T11:55:58.123Z,6.37
2023-05-03T11:58:29.781Z,6.14
2023-05-03T12:01:01.774Z,6.35
2023-05-03T12:03:34.234Z,5.85
2023-05-03T12:06:06.795Z,6.08
2023-05-03T12:08:41.945Z,5.98
2023-05-03T12:11:17.301Z,6.05
2023-05-03T12:14:00.580Z,5.71
2023-05-03T12:16:50.351Z,5.75
2023-05-03T12:19:27.723Z,5.95
2023-05-03T12:22:22.905Z,6.10
2023-05-03T12:24:53.561Z,5.85
2023-05-03T12:27:28.026Z,5.90
2023-05-03T12:30:01.569Z,5.21
2023-05-03T12:32:33.741Z,5.29
2023-05-03T12:35:08.822Z,5.26
2023-05-03T12:37:43.509Z,4.94
2023-05-03T12:40:32.569Z,4.69
2023-05-03T12:43:06.358Z,5.13
2023-05-03T12:45:40.513Z,4.22
2023-05-03T12:48:12.717Z,5.31
2023-05-03T12:50:45.482Z,5.61
2023-05-03T12:53:18.145Z,5.22
2023-05-03T12:55:51.768Z,4.87
2023-05-03T12:58:50.056Z,5.05
2023-05-03T13:01:51.167Z,5.03
2023-05-03T13:04:39.932Z,5.04
2023-05-03T13:07:00.842Z,5.15
2023-05-03T13:10:12.104Z,5.23
2023-05-03T13:12:24.971Z,4.94
2023-05-03T13:14:56.626Z,4.64
2023-05-03T13:17:28.201Z,4.41
2023-05-03T13:19:59.869Z,4.89
2023-05-03T13:22:31.444Z,4.21
2023-05-03T13:25:03.636Z,4.36
2023-05-03T13:27:35.578Z,4.17
2023-05-03T13:30:07.793Z,4.00
2023-05-03T13:32:39.559Z,4.12
2023-05-03T13:35:11.232Z,4.18
2023-05-03T13:37:42.921Z,4.02
2023-05-03T13:40:14.698Z,3.88
2023-05-03T22:00:57.937Z,9.41
2023-05-03T22:03:29.782Z,8.54
2023-05-03T22:06:01.513Z,7.52
2023-05-03T22:08:33.043Z,7.70
2023-05-03T22:11:05.529Z,7.33
2023-05-03T22:13:46.135Z,7.04
2023-05-03T22:16:27.156Z,6.63
2023-05-03T22:18:59.371Z,6.93
2023-05-03T22:21:35.577Z,7.39
2023-05-03T22:24:07.917Z,7.27
2023-05-03T22:26:39.922Z,7.01
2023-05-03T22:29:12.090Z,7.22
2023-05-03T22:31:44.136Z,7.30
2023-05-03T22:34:16.213Z,7.12
2023-05-03T22:36:47.890Z,7.36
2023-05-03T22:39:25.325Z,7.03
2023-05-03T22:41:56.843Z,7.47
2023-05-03T22:44:28.415Z,7.40
2023-05-03T22:46:59.976Z,7.07
2023-05-03T22:49:40.866Z,7.23
2023-05-03T22:52:12.483Z,7.71
2023-05-03T22:54:44.112Z,7.82
2023-05-03T22:57:15.651Z,7.81
2023-05-03T22:59:47.200Z,7.43
2023-05-03T23:02:18.798Z,7.60
2023-05-03T23:04:50.441Z,7.31
2023-05-03T23:07:21.938Z,7.32
2023-05-03T23:10:01.873Z,7.56
2023-05-03T23:12:33.812Z,7.33
2023-05-03T23:15:06.416Z,7.70
2023-05-03T23:17:38.005Z,7.60
2023-05-03T23:20:10.257Z,7.27
2023-05-03T23:22:42.050Z,7.89
2023-05-03T23:25:13.860Z,7.31
2023-05-03T23:27:45.713Z,7.40
2023-05-03T23:30:17.723Z,7.72
2023-05-03T23:32:49.991Z,7.37
2023-05-03T23:35:22.033Z,7.78
2023-05-03T23:37:53.581Z,7.20
2023-05-03T23:40:25.124Z,7.72
2023-05-03T23:42:56.802Z,7.55
2023-05-03T23:45:28.547Z,7.46
2023-05-03T23:48:00.286Z,7.26
2023-05-03T23:50:32.112Z,7.37
2023-05-03T23:53:03.752Z,7.74
2023-05-03T23:55:35.378Z,7.31
2023-05-03T23:58:06.963Z,7.30
